Time;durP1;ratioP1;P1;durP2;ratioP2;P2;SDS_P1;SDS_P2;PMS_P1;PMS_P2;Temp;Humidity;BMP_temperature;BMP_pressure;BME280_temperature;BME280_humidity;BME280_pressure;Samples;Min_cycle;Max_cycle;Signal;HPM_P1;HPM_P2
2023/10/14 00:02:05;;;;;;;;;;;;;;;13.61;100.00;98942.50;5005091;28;19914;-82
2023/10/14 00:04:30;;;;;;;;;;;;;;;13.80;100.00;98954.00;4998479;28;19920;-81
2023/10/14 00:06:57;;;;;;;;;;;;;;;13.79;100.00;98951.53;5004472;28;19921;-84
2023/10/14 00:09:23;;;;;;;;;;;;;;;13.86;100.00;98971.03;5004015;28;20284;-82
2023/10/14 00:11:54;;;;;;;;;;;;;;;13.91;100.00;98976.56;5000292;28;20027;-83
2023/10/14 00:14:21;;;;;;;;;;;;;;;13.87;100.00;98975.38;5002521;28;19918;-81
2023/10/14 00:16:52;;;;;;;;;;;;;;;13.90;100.00;98974.91;5003893;28;19909;-82
2023/10/14 00:19:18;;;;;;;;;;;;;;;14.04;100.00;98995.16;5000189;28;19917;-82
2023/10/14 00:21:44;;;;;;;;;;;;;;;13.81;100.00;98985.13;4998440;28;19932;-81
2023/10/14 00:24:10;;;;;;;;;;;;;;;13.94;100.00;99000.25;4994179;28;19917;-83
2023/10/14 00:26:35;;;;;;;;;;;;;;;13.92;100.00;99003.16;5014611;28;19949;-82
2023/10/14 00:31:46;;;;;;;;;;;;;;;13.91;100.00;99011.44;4998018;28;19927;-84
2023/10/14 00:34:17;;;;;;;;;;;;;;;13.94;100.00;99008.31;5003806;28;19917;-82
2023/10/14 00:36:43;;;;;;;;;;;;;;;13.91;100.00;98998.03;5004588;28;19917;-81
2023/10/14 00:39:16;;;;;;;;;;;;;;;13.94;100.00;99009.13;5007804;28;19936;-80
2023/10/14 00:41:42;;;;;;;;;;;;;;;13.85;100.00;98999.75;5003433;28;20347;-82
2023/10/14 00:44:08;;;;;;;;;;;;;;;14.02;100.00;98999.09;5021655;28;20020;-82
2023/10/14 00:46:35;;;;;;;;;;;;;;;14.03;100.00;99012.31;4998462;28;19988;-83
2023/10/14 00:49:04;;;;;;;;;;;;;;;14.04;100.00;99015.81;5002844;28;19909;-82
2023/10/14 00:51:33;;;;;;;;;;;;;;;13.95;100.00;99028.72;4998576;28;19913;-84
2023/10/14 00:54:02;;;;;;;;;;;;;;;13.96;100.00;99041.09;5000924;28;19935;-84
2023/10/14 00:56:28;;;;;;;;;;;;;;;13.88;100.00;99026.13;5019179;28;19996;-82
2023/10/14 00:58:58;;;;;;;;;;;;;;;13.93;100.00;99038.88;4998786;28;20004;-83
2023/10/14 01:01:28;;;;;;;;;;;;;;;13.91;100.00;99041.78;4998744;28;19918;-83
2023/10/14 01:03:58;;;;;;;;;;;;;;;13.90;100.00;99032.06;4998421;28;19923;-83
2023/10/14 01:06:53;;;;;;;;;;;;;;;13.85;100.00;99028.44;5015922;28;19919;-83
2023/10/14 01:09:18;;;;;;;;;;;;;;;13.77;100.00;99061.75;5015031;28;19917;-84
2023/10/14 01:11:43;;;;;;;;;;;;;;;13.86;100.00;99078.34;4998583;28;20343;-83
2023/10/14 01:14:08;;;;;;;;;;;;;;;13.82;100.00;99063.75;5020381;28;20012;-83
2023/10/14 01:16:37;;;;;;;;;;;;;;;13.76;100.00;99065.47;5013356;28;19913;-80
2023/10/14 01:19:03;;;;;;;;;;;;;;;13.86;100.00;99081.88;4999900;28;19913;-84
2023/10/14 01:21:29;;;;;;;;;;;;;;;13.68;100.00;99068.47;4997860;28;19917;-84
2023/10/14 01:23:58;;;;;;;;;;;;;;;13.69;100.00;99060.16;4998763;28;19964;-83
2023/10/14 01:26:24;;;;;;;;;;;;;;;13.61;100.00;99060.50;5002733;28;19913;-83
2023/10/14 01:28:58;;;;;;;;;;;;;;;13.56;100.00;99054.16;5016592;28;19913;-84
2023/10/14 01:33:58;;;;;;;;;;;;;;;13.61;100.00;99030.19;5026381;28;19980;-82
2023/10/14 01:36:32;;;;;;;;;;;;;;;13.49;100.00;99030.09;5003559;28;19948;-83
2023/10/14 01:38:59;;;;;;;;;;;;;;;13.53;100.00;99044.69;5002646;28;20012;-82
2023/10/14 01:41:24;;;;;;;;;;;;;;;13.48;100.00;99045.34;5016041;28;19921;-84
2023/10/14 01:43:50;;;;;;;;;;;;;;;13.56;100.00;99049.63;5006114;28;20148;-84
2023/10/14 01:46:18;;;;;;;;;;;;;;;13.57;100.00;99050.44;4996570;28;19909;-83
2023/10/14 01:48:44;;;;;;;;;;;;;;;13.49;100.00;99044.31;5001021;28;19913;-82
2023/10/14 01:51:09;;;;;;;;;;;;;;;13.46;100.00;99050.13;5003828;28;19913;-83
2023/10/14 01:53:38;;;;;;;;;;;;;;;13.50;100.00;99045.13;5002128;28;19920;-83
2023/10/14 01:56:03;;;;;;;;;;;;;;;13.24;100.00;99032.81;5019002;28;19964;-82
2023/10/14 01:58:40;;;;;;;;;;;;;;;13.30;100.00;99042.69;4999315;28;19914;-82
2023/10/14 02:03:41;;;;;;;;;;;;;;;13.21;100.00;99047.47;5002127;28;20056;-80
2023/10/14 02:06:11;;;;;;;;;;;;;;;13.35;100.00;99058.09;5004981;28;20470;-81
2023/10/14 02:08:36;;;;;;;;;;;;;;;13.24;100.00;99054.25;4998755;28;19983;-81
2023/10/14 02:11:03;;;;;;;;;;;;;;;13.19;100.00;99044.19;5004372;28;19936;-81
2023/10/14 02:13:29;;;;;;;;;;;;;;;13.17;100.00;99048.94;5015298;28;19913;-83
2023/10/14 02:15:59;;;;;;;;;;;;;;;13.01;100.00;99053.00;4983844;28;19909;-82
2023/10/14 02:18:24;;;;;;;;;;;;;;;13.07;100.00;99070.06;5015290;28;19913;-81
2023/10/14 02:21:04;;;;;;;;;;;;;;;12.88;100.00;99067.34;4999288;28;19919;-82
2023/10/14 02:23:43;;;;;;;;;;;;;;;13.02;100.00;99078.75;4999403;28;19940;-83
2023/10/14 02:26:10;;;;;;;;;;;;;;;12.85;100.00;99069.59;5021058;28;20353;-82
2023/10/14 02:28:45;;;;;;;;;;;;;;;12.92;100.00;99078.41;4997078;28;19909;-82
2023/10/14 02:31:17;;;;;;;;;;;;;;;12.82;100.00;99089.63;5007634;28;20373;-81
2023/10/14 02:33:45;;;;;;;;;;;;;;;12.78;100.00;99100.97;5013792;28;19926;-80
2023/10/14 02:36:14;;;;;;;;;;;;;;;12.54;100.00;99105.25;5008224;28;19920;-82
2023/10/14 02:38:39;;;;;;;;;;;;;;;12.63;100.00;99136.91;4997065;28;20388;-79
2023/10/14 02:41:05;;;;;;;;;;;;;;;12.35;100.00;99134.59;5009341;28;19920;-82
2023/10/14 02:43:30;;;;;;;;;;;;;;;12.53;100.00;99174.03;5008838;28;19971;-80
2023/10/14 02:46:02;;;;;;;;;;;;;;;12.52;100.00;99169.72;5001381;28;20399;-79
2023/10/14 02:48:49;;;;;;;;;;;;;;;12.53;100.00;99171.38;5015131;28;19917;-81
2023/10/14 02:51:16;;;;;;;;;;;;;;;12.35;100.00;99168.56;5013245;28;19923;-81
2023/10/14 02:53:42;;;;;;;;;;;;;;;12.43;100.00;99187.91;4998452;28;19910;-81
2023/10/14 02:56:10;;;;;;;;;;;;;;;12.25;100.00;99167.16;5005152;28;19917;-82
2023/10/14 02:58:35;;;;;;;;;;;;;;;12.21;100.00;99165.94;5005034;28;19913;-82
2023/10/14 03:01:00;;;;;;;;;;;;;;;12.22;100.00;99172.94;5022063;28;20427;-81
2023/10/14 03:03:29;;;;;;;;;;;;;;;12.10;100.00;99161.22;4991042;28;19922;-82
2023/10/14 03:06:05;;;;;;;;;;;;;;;12.22;100.00;99177.44;5005463;28;19909;-81
2023/10/14 03:08:34;;;;;;;;;;;;;;;12.08;100.00;99163.31;5003753;28;19913;-82
2023/10/14 03:11:00;;;;;;;;;;;;;;;12.00;100.00;99159.00;5020188;28;19914;-82
2023/10/14 03:13:29;;;;;;;;;;;;;;;12.11;100.00;99160.22;5004917;28;19967;-82
2023/10/14 03:15:55;;;;;;;;;;;;;;;11.99;100.00;99146.69;5009481;28;19909;-83
2023/10/14 03:18:20;;;;;;;;;;;;;;;12.09;100.00;99156.13;5006020;28;19984;-82
2023/10/14 03:23:23;;;;;;;;;;;;;;;12.04;100.00;99165.59;5010990;28;20226;-80
2023/10/14 03:25:53;;;;;;;;;;;;;;;12.03;100.00;99176.50;5019676;28;19913;-82
2023/10/14 03:28:20;;;;;;;;;;;;;;;12.20;100.00;99175.00;5005604;28;19913;-81
2023/10/14 03:30:47;;;;;;;;;;;;;;;12.15;100.00;99184.69;5002432;28;20316;-83
2023/10/14 03:33:13;;;;;;;;;;;;;;;11.83;100.00;99169.31;5009636;28;19928;-80
2023/10/14 03:35:41;;;;;;;;;;;;;;;11.96;100.00;99183.72;5004193;28;19924;-83
2023/10/14 03:38:21;;;;;;;;;;;;;;;12.08;100.00;99208.81;5004403;28;20498;-80
2023/10/14 03:43:15;;;;;;;;;;;;;;;12.08;100.00;99206.13;5006107;28;20402;-81
2023/10/14 03:48:45;;;;;;;;;;;;;;;12.07;100.00;99231.22;4970550;28;20410;-83
2023/10/14 03:51:11;;;;;;;;;;;;;;;11.84;100.00;99216.41;5007497;28;19963;-83
2023/10/14 03:53:38;;;;;;;;;;;;;;;11.67;100.00;99215.19;4997272;28;19940;-80
2023/10/14 03:56:03;;;;;;;;;;;;;;;11.90;100.00;99248.75;4999124;28;19956;-82
2023/10/14 03:58:32;;;;;;;;;;;;;;;11.58;100.00;99230.63;4996970;28;19952;-81
2023/10/14 04:00:59;;;;;;;;;;;;;;;11.67;100.00;99247.28;4996797;28;20443;-81
2023/10/14 04:03:39;;;;;;;;;;;;;;;11.58;100.00;99252.00;4996538;28;19917;-82
2023/10/14 04:06:07;;;;;;;;;;;;;;;11.44;100.00;99250.34;4998109;28;19921;-82
2023/10/14 04:08:39;;;;;;;;;;;;;;;11.46;100.00;99264.34;4995025;28;19914;-82
2023/10/14 04:11:14;;;;;;;;;;;;;;;11.45;100.00;99261.84;5002206;28;19922;-82
2023/10/14 04:13:41;;;;;;;;;;;;;;;11.44;100.00;99265.56;5000698;28;19932;-82
2023/10/14 04:16:11;;;;;;;;;;;;;;;11.36;100.00;99264.75;4999719;28;19952;-82
2023/10/14 04:18:43;;;;;;;;;;;;;;;11.27;100.00;99241.09;5000065;28;19918;-80
2023/10/14 04:23:42;;;;;;;;;;;;;;;11.33;100.00;99254.47;4999765;28;20281;-82
2023/10/14 04:26:11;;;;;;;;;;;;;;;11.30;100.00;99256.72;4997441;28;20308;-81
2023/10/14 04:28:53;;;;;;;;;;;;;;;11.23;100.00;99253.22;5010645;28;19917;-81
2023/10/14 04:31:26;;;;;;;;;;;;;;;11.07;100.00;99254.41;4995614;28;19917;-81
2023/10/14 04:33:52;;;;;;;;;;;;;;;11.03;100.00;99270.03;5011867;28;19929;-81
2023/10/14 04:38:43;;;;;;;;;;;;;;;11.07;100.00;99284.59;4995341;28;19913;-81
2023/10/14 04:41:13;;;;;;;;;;;;;;;10.95;100.00;99270.19;4998401;28;20346;-82
2023/10/14 04:46:19;;;;;;;;;;;;;;;10.76;100.00;99290.47;5007439;28;20040;-81
2023/10/14 04:48:51;;;;;;;;;;;;;;;10.92;100.00;99300.78;5014975;28;20389;-81
2023/10/14 04:51:18;;;;;;;;;;;;;;;10.90;100.00;99302.84;4994953;28;19968;-81
2023/10/14 04:53:44;;;;;;;;;;;;;;;10.90;100.00;99310.84;4994689;28;20008;-82
2023/10/14 04:56:21;;;;;;;;;;;;;;;10.95;100.00;99324.41;5000578;28;20523;-81
2023/10/14 04:58:46;;;;;;;;;;;;;;;10.92;100.00;99346.19;4997761;28;20389;-82
2023/10/14 05:01:17;;;;;;;;;;;;;;;10.91;100.00;99346.38;5006657;28;19984;-80
2023/10/14 05:03:43;;;;;;;;;;;;;;;10.94;100.00;99349.47;4987465;28;20407;-81
2023/10/14 05:08:44;;;;;;;;;;;;;;;10.62;100.00;99318.94;5002524;28;20353;-81
2023/10/14 05:11:13;;;;;;;;;;;;;;;10.75;100.00;99311.00;4999193;28;19928;-81
2023/10/14 05:13:42;;;;;;;;;;;;;;;10.87;100.00;99313.09;4993920;28;20397;-82
2023/10/14 05:16:21;;;;;;;;;;;;;;;10.80;100.00;99314.94;5005454;28;19917;-79
2023/10/14 05:19:00;;;;;;;;;;;;;;;10.84;100.00;99313.47;4995410;28;19914;-81
2023/10/14 05:21:43;;;;;;;;;;;;;;;10.80;100.00;99310.41;4995979;28;19914;-81
2023/10/14 05:24:09;;;;;;;;;;;;;;;10.84;100.00;99306.31;5003485;28;19952;-83
2023/10/14 05:26:45;;;;;;;;;;;;;;;10.84;100.00;99309.00;4999589;28;19913;-82
2023/10/14 05:29:16;;;;;;;;;;;;;;;10.76;100.00;99303.81;4997516;28;19940;-83
2023/10/14 05:31:45;;;;;;;;;;;;;;;10.72;100.00;99287.38;5015802;28;20270;-79
2023/10/14 05:34:11;;;;;;;;;;;;;;;10.65;100.00;99288.34;5023408;28;20351;-81
2023/10/14 05:36:36;;;;;;;;;;;;;;;10.72;100.00;99319.41;5008357;28;19917;-80
2023/10/14 05:39:02;;;;;;;;;;;;;;;10.45;100.00;99334.44;5007062;28;20044;-80
2023/10/14 05:41:28;;;;;;;;;;;;;;;10.32;100.00;99334.34;5023098;28;19963;-81
2023/10/14 05:43:53;;;;;;;;;;;;;;;10.30;100.00;99345.25;5008008;28;20020;-82
2023/10/14 05:46:20;;;;;;;;;;;;;;;10.29;100.00;99353.41;5011084;28;20368;-82
2023/10/14 05:48:45;;;;;;;;;;;;;;;10.29;100.00;99375.59;5007992;28;19917;-81
2023/10/14 05:51:11;;;;;;;;;;;;;;;10.38;100.00;99378.13;5008204;28;19917;-83
2023/10/14 05:53:36;;;;;;;;;;;;;;;10.41;100.00;99373.19;5008083;28;19984;-82
2023/10/14 05:56:14;;;;;;;;;;;;;;;10.42;100.00;99360.69;5010030;28;20285;-83
2023/10/14 05:58:40;;;;;;;;;;;;;;;10.51;100.00;99363.03;5000391;28;19921;-83
2023/10/14 06:01:13;;;;;;;;;;;;;;;10.45;100.00;99368.31;5007163;28;20399;-84
2023/10/14 06:03:40;;;;;;;;;;;;;;;10.36;100.00;99367.63;5004188;28;20012;-84
2023/10/14 06:06:14;;;;;;;;;;;;;;;10.47;100.00;99400.97;5007078;28;19953;-83
2023/10/14 06:08:40;;;;;;;;;;;;;;;10.35;100.00;99393.50;5019333;28;19917;-83
2023/10/14 06:11:05;;;;;;;;;;;;;;;10.42;100.00;99388.22;5007302;28;20335;-82
2023/10/14 06:13:34;;;;;;;;;;;;;;;10.57;100.00;99410.25;5010724;28;19913;-83
2023/10/14 06:16:00;;;;;;;;;;;;;;;10.62;100.00;99392.84;5005639;28;19910;-81
2023/10/14 06:18:26;;;;;;;;;;;;;;;10.67;100.00;99387.75;5011111;28;20008;-83
2023/10/14 06:20:53;;;;;;;;;;;;;;;10.60;100.00;99389.53;5008936;28;20427;-82
2023/10/14 06:23:18;;;;;;;;;;;;;;;10.69;100.00;99393.72;5009130;28;19991;-81
2023/10/14 06:25:44;;;;;;;;;;;;;;;10.61;100.00;99383.19;5005951;28;20365;-81
2023/10/14 06:28:10;;;;;;;;;;;;;;;10.74;100.00;99373.41;5026586;28;19920;-82
2023/10/14 06:30:35;;;;;;;;;;;;;;;10.82;100.00;99377.78;5027499;28;19913;-82
2023/10/14 06:33:03;;;;;;;;;;;;;;;10.91;100.00;99411.31;5009860;28;20461;-82
2023/10/14 06:35:29;;;;;;;;;;;;;;;11.16;100.00;99422.28;5013952;28;19920;-83
2023/10/14 06:37:56;;;;;;;;;;;;;;;11.32;100.00;99429.16;5009884;28;19909;-83
2023/10/14 06:40:23;;;;;;;;;;;;;;;11.43;100.00;99451.00;5013499;28;19920;-81
2023/10/14 06:42:50;;;;;;;;;;;;;;;11.39;100.00;99429.19;5014121;28;19913;-85
2023/10/14 06:45:18;;;;;;;;;;;;;;;11.35;100.00;99423.41;4997945;28;19913;-85
2023/10/14 06:47:50;;;;;;;;;;;;;;;11.22;100.00;99372.59;5030166;28;20012;-79
2023/10/14 06:50:23;;;;;;;;;;;;;;;11.18;100.00;99390.06;5019246;28;20008;-81
2023/10/14 06:52:49;;;;;;;;;;;;;;;11.11;100.00;99405.22;5033998;28;19921;-81
2023/10/14 06:55:21;;;;;;;;;;;;;;;11.05;100.00;99365.94;5011618;28;20261;-82
2023/10/14 06:57:53;;;;;;;;;;;;;;;11.06;100.00;99380.97;5015560;28;20044;-82
2023/10/14 07:00:25;;;;;;;;;;;;;;;10.93;100.00;99387.91;5007132;28;20360;-79
2023/10/14 07:02:51;;;;;;;;;;;;;;;10.97;100.00;99415.84;5026268;28;19917;-78
2023/10/14 07:05:19;;;;;;;;;;;;;;;10.93;100.00;99414.59;5014418;28;20123;-82
2023/10/14 07:07:46;;;;;;;;;;;;;;;10.94;100.00;99418.09;5014836;28;19921;-79
2023/10/14 07:10:12;;;;;;;;;;;;;;;11.15;100.00;99401.97;5013638;28;20418;-81
2023/10/14 07:12:37;;;;;;;;;;;;;;;11.31;100.00;99392.78;5030523;28;19956;-81
2023/10/14 07:15:05;;;;;;;;;;;;;;;11.50;100.00;99414.44;5012009;28;20192;-80
2023/10/14 07:17:31;;;;;;;;;;;;;;;11.78;100.00;99407.09;5011992;28;19913;-80
2023/10/14 07:19:56;;;;;;;;;;;;;;;12.05;100.00;99396.44;5014642;28;19914;-81
2023/10/14 07:22:21;;;;;;;;;;;;;;;12.15;100.00;99343.38;5014857;28;19929;-80
2023/10/14 07:24:47;;;;;;;;;;;;;;;12.76;100.00;99349.41;5011515;28;20173;-80
2023/10/14 07:27:13;;;;;;;;;;;;;;;12.98;100.00;99208.81;5010246;28;20020;-81
2023/10/14 07:29:39;;;;;;;;;;;;;;;13.26;100.00;99128.00;5013431;28;19920;-80
2023/10/14 07:32:05;;;;;;;;;;;;;;;13.27;100.00;99075.22;5011275;28;19914;-81
2023/10/14 07:34:30;;;;;;;;;;;;;;;13.34;100.00;99030.44;5010918;28;20335;-81
2023/10/14 07:36:55;;;;;;;;;;;;;;;13.54;100.00;99043.66;5010142;28;20004;-79
2023/10/14 07:39:29;;;;;;;;;;;;;;;14.01;100.00;99040.41;5012923;28;20032;-79
2023/10/14 07:41:58;;;;;;;;;;;;;;;14.10;100.00;98912.94;5013139;28;19960;-79
2023/10/14 07:44:23;;;;;;;;;;;;;;;14.72;100.00;98966.28;5010226;28;20076;-80
2023/10/14 07:46:49;;;;;;;;;;;;;;;14.15;100.00;98730.56;5012041;28;19954;-81
2023/10/14 07:49:14;;;;;;;;;;;;;;;14.87;100.00;98802.75;5017490;28;20388;-81
2023/10/14 07:51:40;;;;;;;;;;;;;;;15.16;100.00;98617.31;5010960;28;19981;-80
2023/10/14 07:54:07;;;;;;;;;;;;;;;15.02;100.00;98613.31;5015933;28;19917;-80
2023/10/14 07:56:32;;;;;;;;;;;;;;;15.15;100.00;98533.19;5028587;28;19917;-81
2023/10/14 07:58:57;;;;;;;;;;;;;;;15.59;100.00;98506.38;5012136;28;19936;-80
2023/10/14 08:01:23;;;;;;;;;;;;;;;15.75;100.00;98493.13;5013115;28;19996;-80
2023/10/14 08:03:48;;;;;;;;;;;;;;;15.84;100.00;98279.06;5011292;28;19917;-80
2023/10/14 08:06:17;;;;;;;;;;;;;;;15.44;100.00;98119.00;5012139;28;19935;-80
2023/10/14 08:08:47;;;;;;;;;;;;;;;16.38;100.00;98332.75;5016376;28;19921;-81
2023/10/14 08:11:13;;;;;;;;;;;;;;;16.12;100.00;98232.19;5010496;28;19921;-82
2023/10/14 08:13:40;;;;;;;;;;;;;;;16.21;100.00;98081.78;5019454;28;19951;-80
2023/10/14 08:16:07;;;;;;;;;;;;;;;15.96;100.00;98080.59;5012215;28;20397;-80
2023/10/14 08:18:33;;;;;;;;;;;;;;;15.92;100.00;98270.53;5011860;28;20006;-81
2023/10/14 08:20:59;;;;;;;;;;;;;;;16.28;100.00;98227.72;5010817;28;19937;-80
2023/10/14 08:23:25;;;;;;;;;;;;;;;17.13;100.00;98251.78;5015942;28;19923;-80
2023/10/14 08:25:59;;;;;;;;;;;;;;;16.41;100.00;98035.22;5015148;28;19916;-81
2023/10/14 08:28:27;;;;;;;;;;;;;;;17.27;100.00;98271.75;5010135;28;19913;-81
2023/10/14 08:30:52;;;;;;;;;;;;;;;16.56;100.00;97714.78;5013640;28;19967;-81
2023/10/14 08:33:19;;;;;;;;;;;;;;;16.68;100.00;98035.81;5008265;28;19913;-79
2023/10/14 08:35:48;;;;;;;;;;;;;;;17.82;100.00;98021.16;5028448;28;19916;-79
2023/10/14 08:38:14;;;;;;;;;;;;;;;17.47;100.00;97633.69;5011793;28;19922;-81
2023/10/14 08:40:43;;;;;;;;;;;;;;;16.01;100.00;97873.44;5012721;28;19909;-80
2023/10/14 08:43:09;;;;;;;;;;;;;;;15.53;100.00;98230.38;5006847;28;20300;-80
2023/10/14 08:45:38;;;;;;;;;;;;;;;16.91;100.00;98278.94;5011723;28;19916;-80
2023/10/14 08:48:05;;;;;;;;;;;;;;;17.44;100.00;98125.06;5008798;28;19914;-80
2023/10/14 08:50:33;;;;;;;;;;;;;;;16.06;100.00;97874.50;5006737;28;19917;-78
2023/10/14 08:53:03;;;;;;;;;;;;;;;14.89;100.00;97800.50;5005298;28;20004;-78
2023/10/14 08:55:32;;;;;;;;;;;;;;;14.67;100.00;98209.63;5020844;28;19920;-79
2023/10/14 08:58:01;;;;;;;;;;;;;;;16.33;100.00;98550.81;5004609;28;19913;-79
2023/10/14 09:00:29;;;;;;;;;;;;;;;16.91;100.00;98071.44;5005277;28;19924;-79
2023/10/14 09:02:54;;;;;;;;;;;;;;;17.53;96.53;97759.31;5010084;28;19917;-80
2023/10/14 09:05:20;;;;;;;;;;;;;;;18.25;95.38;97893.75;5011085;28;19936;-80
2023/10/14 09:07:49;;;;;;;;;;;;;;;17.64;94.26;97647.53;5008832;28;19909;-80
2023/10/14 09:10:16;;;;;;;;;;;;;;;17.15;92.61;97527.19;5009675;28;19967;-80
2023/10/14 09:12:52;;;;;;;;;;;;;;;18.06;91.19;97707.38;5009109;28;20028;-80
2023/10/14 09:15:20;;;;;;;;;;;;;;;16.76;91.13;97363.69;5007292;28;19921;-80
2023/10/14 09:17:46;;;;;;;;;;;;;;;17.30;91.04;97667.25;5008065;28;20369;-80
2023/10/14 09:20:26;;;;;;;;;;;;;;;17.65;87.73;97424.44;5012924;28;19972;-79
2023/10/14 09:22:51;;;;;;;;;;;;;;;17.24;87.79;97433.81;5002462;28;19921;-78
2023/10/14 09:25:17;;;;;;;;;;;;;;;17.83;87.39;97561.31;5008462;28;19920;-78
2023/10/14 09:27:48;;;;;;;;;;;;;;;18.21;88.40;97836.00;5004867;28;19913;-77
2023/10/14 09:30:18;;;;;;;;;;;;;;;18.24;85.83;97652.63;5004392;28;19921;-78
2023/10/14 09:32:43;;;;;;;;;;;;;;;17.66;84.00;97289.28;5007609;28;20292;-78
2023/10/14 09:35:08;;;;;;;;;;;;;;;16.56;85.32;97229.28;5004925;28;19909;-79
2023/10/14 09:37:34;;;;;;;;;;;;;;;16.34;84.60;97174.06;5005379;28;20459;-78
2023/10/14 09:40:05;;;;;;;;;;;;;;;15.90;84.10;97078.22;5002206;28;19925;-78
2023/10/14 09:42:32;;;;;;;;;;;;;;;16.22;87.12;97540.50;5005765;28;19924;-79
2023/10/14 09:45:05;;;;;;;;;;;;;;;16.01;87.08;97494.03;5003598;28;19940;-79
2023/10/14 09:47:31;;;;;;;;;;;;;;;15.67;90.39;97708.22;5005859;28;20373;-79
2023/10/14 09:49:58;;;;;;;;;;;;;;;15.09;91.12;97681.56;5004538;28;19918;-78
2023/10/14 09:52:25;;;;;;;;;;;;;;;14.34;91.72;97532.34;5004979;28;19988;-79
2023/10/14 09:54:51;;;;;;;;;;;;;;;14.19;94.03;97724.66;5005105;28;20352;-78
2023/10/14 09:57:16;;;;;;;;;;;;;;;13.69;98.44;97927.81;5003774;28;19967;-81
2023/10/14 09:59:42;;;;;;;;;;;;;;;13.77;100.00;98159.88;5004831;28;20032;-80
2023/10/14 10:02:09;;;;;;;;;;;;;;;13.64;100.00;98364.75;5003223;28;19914;-79
2023/10/14 10:04:36;;;;;;;;;;;;;;;13.65;100.00;98655.94;5011403;28;19913;-79
2023/10/14 10:07:04;;;;;;;;;;;;;;;13.16;100.00;98621.28;5006996;28;19917;-81
2023/10/14 10:09:49;;;;;;;;;;;;;;;13.80;100.00;98632.16;5024102;28;19963;-78
2023/10/14 10:12:16;;;;;;;;;;;;;;;15.21;100.00;98628.13;5008228;28;19914;-79
2023/10/14 10:14:44;;;;;;;;;;;;;;;16.27;100.00;98740.31;5009562;28;20324;-80
2023/10/14 10:17:11;;;;;;;;;;;;;;;17.02;97.92;98368.72;5006888;28;20012;-78
2023/10/14 10:19:55;;;;;;;;;;;;;;;17.69;94.85;98334.69;5022721;28;19963;-80
2023/10/14 10:22:20;;;;;;;;;;;;;;;16.86;88.58;97584.56;5008226;28;19913;-79
2023/10/14 10:24:46;;;;;;;;;;;;;;;17.66;89.95;98039.25;5006780;28;20448;-79
2023/10/14 10:27:12;;;;;;;;;;;;;;;17.69;88.15;97876.81;5008948;28;20015;-81
2023/10/14 10:29:50;;;;;;;;;;;;;;;17.95;90.31;98138.50;5008350;28;19924;-79
2023/10/14 10:32:23;;;;;;;;;;;;;;;16.29;95.08;98121.63;5006635;28;20306;-77
2023/10/14 10:35:06;;;;;;;;;;;;;;;15.24;100.00;98969.06;5011853;28;20352;-79
2023/10/14 10:37:50;;;;;;;;;;;;;;;15.86;100.00;99218.72;5003731;28;20426;-83
2023/10/14 10:40:22;;;;;;;;;;;;;;;16.49;100.00;99456.84;5006546;28;20335;-80
2023/10/14 10:42:50;;;;;;;;;;;;;;;16.69;100.00;99383.75;5006804;28;19937;-79
2023/10/14 10:45:21;;;;;;;;;;;;;;;17.50;100.00;99373.84;5008604;28;19923;-77
2023/10/14 10:47:52;;;;;;;;;;;;;;;16.32;100.00;99085.06;5008552;28;20052;-78
2023/10/14 10:50:17;;;;;;;;;;;;;;;14.89;100.00;98028.81;5005298;28;20612;-76
2023/10/14 10:52:51;;;;;;;;;;;;;;;13.54;100.00;97946.44;5007494;28;19917;-76
2023/10/14 10:55:17;;;;;;;;;;;;;;;12.73;100.00;97949.56;5008233;28;19965;-77
2023/10/14 10:57:44;;;;;;;;;;;;;;;12.26;100.00;97830.31;5006124;28;19967;-76
2023/10/14 11:00:10;;;;;;;;;;;;;;;11.96;100.00;98124.75;5006224;28;19913;-75
2023/10/14 11:02:35;;;;;;;;;;;;;;;11.62;100.00;98079.09;5006243;28;19924;-76
2023/10/14 11:05:02;;;;;;;;;;;;;;;11.57;100.00;98589.41;5004473;28;19963;-75
2023/10/14 11:07:28;;;;;;;;;;;;;;;11.60;100.00;98629.84;5005521;28;20004;-77
2023/10/14 11:09:53;;;;;;;;;;;;;;;11.92;100.00;98901.72;5004714;28;19991;-75
2023/10/14 11:12:18;;;;;;;;;;;;;;;12.59;100.00;99234.75;5004881;28;19914;-75
2023/10/14 11:14:44;;;;;;;;;;;;;;;12.58;100.00;99243.81;5006678;28;19914;-76
2023/10/14 11:17:09;;;;;;;;;;;;;;;12.80;100.00;99019.38;5003972;28;19913;-76
2023/10/14 11:19:35;;;;;;;;;;;;;;;12.11;100.00;98935.50;5004851;28;20304;-75
2023/10/14 11:22:01;;;;;;;;;;;;;;;11.70;100.00;98653.41;5003957;28;19913;-76
2023/10/14 11:24:27;;;;;;;;;;;;;;;12.57;100.00;98859.38;5005311;28;19921;-76
2023/10/14 11:26:53;;;;;;;;;;;;;;;12.88;100.00;98721.03;5006627;28;19913;-76
2023/10/14 11:29:28;;;;;;;;;;;;;;;13.36;100.00;99049.81;5004016;28;20343;-76
2023/10/14 11:31:59;;;;;;;;;;;;;;;14.34;100.00;98817.97;5006553;28;19921;-77
2023/10/14 11:34:25;;;;;;;;;;;;;;;14.45;100.00;98157.81;5001210;28;20375;-76
2023/10/14 11:36:50;;;;;;;;;;;;;;;15.25;100.00;98305.94;5020114;28;19940;-76
2023/10/14 11:39:17;;;;;;;;;;;;;;;15.65;99.54;98135.28;5004605;28;20445;-76
2023/10/14 11:41:44;;;;;;;;;;;;;;;15.46;98.38;98020.06;5005110;28;19913;-77
2023/10/14 11:44:09;;;;;;;;;;;;;;;15.31;95.12;97807.63;5000273;28;19945;-76
2023/10/14 11:46:38;;;;;;;;;;;;;;;15.94;96.02;98079.22;5007914;28;20384;-77
2023/10/14 11:49:07;;;;;;;;;;;;;;;16.44;91.09;97868.56;5008086;28;19910;-78
2023/10/14 11:51:37;;;;;;;;;;;;;;;16.52;93.52;98151.88;5019277;28;20121;-76
2023/10/14 11:54:02;;;;;;;;;;;;;;;16.63;90.37;97936.16;5018167;28;19921;-76
2023/10/14 11:56:28;;;;;;;;;;;;;;;17.51;91.69;98226.22;5015587;28;19916;-77
2023/10/14 11:58:53;;;;;;;;;;;;;;;17.02;86.61;97630.22;5002582;28;20384;-77
2023/10/14 12:01:23;;;;;;;;;;;;;;;17.17;85.58;97686.75;5007410;28;19917;-77
2023/10/14 12:03:49;;;;;;;;;;;;;;;17.07;86.07;97763.09;5006537;28;19924;-76
2023/10/14 12:06:14;;;;;;;;;;;;;;;15.94;83.79;97285.56;5006011;28;20008;-76
2023/10/14 12:08:40;;;;;;;;;;;;;;;15.78;85.42;97510.78;5022694;28;20284;-76
2023/10/14 12:11:08;;;;;;;;;;;;;;;15.49;89.80;97879.72;5004384;28;19964;-76
2023/10/14 12:13:33;;;;;;;;;;;;;;;14.34;92.32;97827.56;5021082;28;20011;-76
2023/10/14 12:15:59;;;;;;;;;;;;;;;13.76;94.38;97911.53;5005693;28;20000;-76
2023/10/14 12:18:24;;;;;;;;;;;;;;;13.43;99.42;98181.31;5014271;28;19917;-76
2023/10/14 12:20:50;;;;;;;;;;;;;;;13.37;100.00;98317.09;5010851;28;19913;-76
2023/10/14 12:23:19;;;;;;;;;;;;;;;12.52;100.00;98593.41;5003758;28;19913;-76
2023/10/14 12:25:48;;;;;;;;;;;;;;;12.24;100.00;98938.09;5003403;28;19913;-76
2023/10/14 12:28:25;;;;;;;;;;;;;;;11.98;100.00;99139.66;5001876;28;19996;-76
2023/10/14 12:30:50;;;;;;;;;;;;;;;12.02;100.00;99300.56;5003386;28;19948;-77
2023/10/14 12:33:19;;;;;;;;;;;;;;;13.00;100.00;99375.53;5002537;28;20463;-76
2023/10/14 12:35:51;;;;;;;;;;;;;;;13.90;100.00;99260.09;5003739;28;20364;-76
2023/10/14 12:38:19;;;;;;;;;;;;;;;14.70;100.00;99202.91;5004298;28;20487;-79
2023/10/14 12:40:45;;;;;;;;;;;;;;;14.51;100.00;98970.31;5003701;28;19910;-76
2023/10/14 12:43:12;;;;;;;;;;;;;;;14.44;100.00;98800.44;5001384;28;19925;-76
2023/10/14 12:45:38;;;;;;;;;;;;;;;15.24;100.00;98860.69;5018689;28;19913;-78
2023/10/14 12:48:09;;;;;;;;;;;;;;;15.15;100.00;98638.00;5003122;28;19923;-76
2023/10/14 12:50:40;;;;;;;;;;;;;;;15.43;100.00;98617.47;5008703;28;19913;-77
2023/10/14 12:53:06;;;;;;;;;;;;;;;15.48;100.00;98409.69;5005569;28;19914;-76
2023/10/14 12:55:31;;;;;;;;;;;;;;;15.04;99.97;98184.78;5006384;28;19913;-77
2023/10/14 12:57:57;;;;;;;;;;;;;;;15.47;99.86;98357.75;5004683;28;19924;-78
2023/10/14 13:00:29;;;;;;;;;;;;;;;15.51;97.76;98215.56;5007548;28;19999;-76
2023/10/14 13:02:56;;;;;;;;;;;;;;;15.63;97.09;98211.63;5017449;28;19929;-77
2023/10/14 13:05:23;;;;;;;;;;;;;;;15.43;93.97;97968.69;5006433;28;19928;-76
2023/10/14 13:07:52;;;;;;;;;;;;;;;15.22;97.93;98244.59;5003367;28;20304;-76
2023/10/14 13:10:21;;;;;;;;;;;;;;;15.47;96.38;98252.09;5010457;28;19917;-76